Hujirt, Mongolia
Current Conditions -  °F | °C
As of 4:00 AM on Tuesday 25 Nov 2014 (Local Time) from ZMUB Reporting Station
Clear Clear  
Wind Chill:   Ceiling: Unl
Heat Index:   Visibility: 6mi
Dew Point: -8°   Wind: 2mph
Humidity: 72%   Direction: NA
Pressure: 29.5"   Gusts: NA
Location:  46.9°N, 102.77°E
Report Text: ZMUB 242000Z VRB01MPS CAVOK M18/M22 Q0999 NOSIG RMK QFE644.1 69
Loading
Personal Weather Stations






























Interactive Weather Map New forecast layout! Learn more

10-Day Weather Forecast

Advertisements
Track Severe Weather on mobile